sensor_id;sensor_type;location;lat;lon;timestamp;P1;durP1;ratioP1;P2;durP2;ratioP2
3050;SDS011;1535;51.098;6.414;2022-07-19T00:02:27;13.43;;;11.70;;
3050;SDS011;1535;51.098;6.414;2022-07-19T00:04:56;12.03;;;11.23;;
3050;SDS011;1535;51.098;6.414;2022-07-19T00:07:23;15.00;;;12.23;;
3050;SDS011;1535;51.098;6.414;2022-07-19T00:09:49;16.77;;;12.37;;
3050;SDS011;1535;51.098;6.414;2022-07-19T00:12:17;13.40;;;12.30;;
3050;SDS011;1535;51.098;6.414;2022-07-19T00:17:26;14.07;;;12.83;;
3050;SDS011;1535;51.098;6.414;2022-07-19T00:19:53;12.50;;;11.60;;
3050;SDS011;1535;51.098;6.414;2022-07-19T00:22:21;13.97;;;12.43;;
3050;SDS011;1535;51.098;6.414;2022-07-19T00:24:48;12.70;;;11.90;;
3050;SDS011;1535;51.098;6.414;2022-07-19T00:27:15;18.87;;;11.77;;
3050;SDS011;1535;51.098;6.414;2022-07-19T00:29:42;13.87;;;12.57;;
3050;SDS011;1535;51.098;6.414;2022-07-19T00:32:09;13.97;;;12.87;;
3050;SDS011;1535;51.098;6.414;2022-07-19T00:34:36;16.67;;;13.50;;
3050;SDS011;1535;51.098;6.414;2022-07-19T00:37:04;14.23;;;12.90;;
3050;SDS011;1535;51.098;6.414;2022-07-19T00:39:33;16.20;;;13.40;;
3050;SDS011;1535;51.098;6.414;2022-07-19T00:42:00;14.00;;;12.90;;
3050;SDS011;1535;51.098;6.414;2022-07-19T00:44:27;13.73;;;12.70;;
3050;SDS011;1535;51.098;6.414;2022-07-19T00:46:55;19.43;;;12.77;;
3050;SDS011;1535;51.098;6.414;2022-07-19T00:49:22;14.40;;;13.00;;
3050;SDS011;1535;51.098;6.414;2022-07-19T00:51:51;12.80;;;11.80;;
3050;SDS011;1535;51.098;6.414;2022-07-19T00:54:20;18.90;;;13.33;;
3050;SDS011;1535;51.098;6.414;2022-07-19T00:56:51;16.93;;;12.47;;
3050;SDS011;1535;51.098;6.414;2022-07-19T00:59:20;15.07;;;12.83;;
3050;SDS011;1535;51.098;6.414;2022-07-19T01:01:47;13.90;;;12.50;;
3050;SDS011;1535;51.098;6.414;2022-07-19T01:04:14;13.90;;;12.57;;
3050;SDS011;1535;51.098;6.414;2022-07-19T01:06:42;15.10;;;13.60;;
3050;SDS011;1535;51.098;6.414;2022-07-19T01:09:10;15.13;;;13.57;;
3050;SDS011;1535;51.098;6.414;2022-07-19T01:11:38;13.03;;;11.77;;
3050;SDS011;1535;51.098;6.414;2022-07-19T01:14:07;14.40;;;13.00;;
3050;SDS011;1535;51.098;6.414;2022-07-19T01:16:34;12.63;;;11.43;;
3050;SDS011;1535;51.098;6.414;2022-07-19T01:19:03;13.83;;;12.77;;
3050;SDS011;1535;51.098;6.414;2022-07-19T01:21:32;13.70;;;12.60;;
3050;SDS011;1535;51.098;6.414;2022-07-19T01:24:00;16.40;;;13.17;;
3050;SDS011;1535;51.098;6.414;2022-07-19T01:26:27;13.17;;;12.10;;
3050;SDS011;1535;51.098;6.414;2022-07-19T01:29:09;12.50;;;11.63;;
3050;SDS011;1535;51.098;6.414;2022-07-19T01:31:41;14.03;;;12.77;;
3050;SDS011;1535;51.098;6.414;2022-07-19T01:34:09;13.37;;;12.57;;
3050;SDS011;1535;51.098;6.414;2022-07-19T01:36:37;13.00;;;12.10;;
3050;SDS011;1535;51.098;6.414;2022-07-19T01:39:04;13.43;;;12.40;;
3050;SDS011;1535;51.098;6.414;2022-07-19T01:41:31;16.87;;;12.20;;
3050;SDS011;1535;51.098;6.414;2022-07-19T01:43:58;12.47;;;11.53;;
3050;SDS011;1535;51.098;6.414;2022-07-19T01:46:25;12.03;;;11.33;;
3050;SDS011;1535;51.098;6.414;2022-07-19T01:48:52;15.60;;;12.43;;
3050;SDS011;1535;51.098;6.414;2022-07-19T01:51:19;26.87;;;11.57;;
3050;SDS011;1535;51.098;6.414;2022-07-19T01:53:48;17.60;;;12.43;;
3050;SDS011;1535;51.098;6.414;2022-07-19T01:56:15;22.20;;;12.40;;
3050;SDS011;1535;51.098;6.414;2022-07-19T02:01:25;18.00;;;13.30;;
3050;SDS011;1535;51.098;6.414;2022-07-19T02:03:51;13.03;;;11.83;;
3050;SDS011;1535;51.098;6.414;2022-07-19T02:06:18;22.83;;;12.33;;
3050;SDS011;1535;51.098;6.414;2022-07-19T02:08:46;15.73;;;14.13;;
3050;SDS011;1535;51.098;6.414;2022-07-19T02:11:15;12.77;;;11.10;;
3050;SDS011;1535;51.098;6.414;2022-07-19T02:13:59;21.37;;;12.40;;
3050;SDS011;1535;51.098;6.414;2022-07-19T02:16:27;19.03;;;12.57;;
3050;SDS011;1535;51.098;6.414;2022-07-19T02:18:54;16.17;;;11.93;;
3050;SDS011;1535;51.098;6.414;2022-07-19T02:21:21;13.37;;;12.13;;
3050;SDS011;1535;51.098;6.414;2022-07-19T02:23:50;19.67;;;11.90;;
3050;SDS011;1535;51.098;6.414;2022-07-19T02:26:18;13.27;;;12.07;;
3050;SDS011;1535;51.098;6.414;2022-07-19T02:28:45;19.43;;;11.93;;
3050;SDS011;1535;51.098;6.414;2022-07-19T02:31:12;14.40;;;12.10;;
3050;SDS011;1535;51.098;6.414;2022-07-19T02:33:38;25.10;;;14.10;;
3050;SDS011;1535;51.098;6.414;2022-07-19T02:36:06;14.70;;;13.13;;
3050;SDS011;1535;51.098;6.414;2022-07-19T02:38:32;19.13;;;12.23;;
3050;SDS011;1535;51.098;6.414;2022-07-19T02:41:01;12.53;;;11.47;;
3050;SDS011;1535;51.098;6.414;2022-07-19T02:43:28;30.57;;;14.30;;
3050;SDS011;1535;51.098;6.414;2022-07-19T02:45:55;13.30;;;12.00;;
3050;SDS011;1535;51.098;6.414;2022-07-19T02:48:22;20.10;;;13.10;;
3050;SDS011;1535;51.098;6.414;2022-07-19T02:50:49;25.13;;;12.07;;
3050;SDS011;1535;51.098;6.414;2022-07-19T02:53:16;33.73;;;13.63;;
3050;SDS011;1535;51.098;6.414;2022-07-19T02:55:43;22.03;;;12.47;;
3050;SDS011;1535;51.098;6.414;2022-07-19T02:58:12;18.40;;;13.60;;
3050;SDS011;1535;51.098;6.414;2022-07-19T03:00:39;16.73;;;11.90;;
3050;SDS011;1535;51.098;6.414;2022-07-19T03:03:06;23.93;;;11.97;;
3050;SDS011;1535;51.098;6.414;2022-07-19T03:05:47;18.33;;;11.80;;
3050;SDS011;1535;51.098;6.414;2022-07-19T03:08:14;29.43;;;12.97;;
3050;SDS011;1535;51.098;6.414;2022-07-19T03:10:41;18.37;;;12.43;;
3050;SDS011;1535;51.098;6.414;2022-07-19T03:13:09;16.17;;;13.23;;
3050;SDS011;1535;51.098;6.414;2022-07-19T03:15:37;16.53;;;13.50;;
3050;SDS011;1535;51.098;6.414;2022-07-19T03:18:04;19.17;;;13.53;;
3050;SDS011;1535;51.098;6.414;2022-07-19T03:20:31;29.97;;;12.70;;
3050;SDS011;1535;51.098;6.414;2022-07-19T03:22:58;21.27;;;12.60;;
3050;SDS011;1535;51.098;6.414;2022-07-19T03:25:25;15.73;;;13.00;;
3050;SDS011;1535;51.098;6.414;2022-07-19T03:27:53;26.53;;;14.07;;
3050;SDS011;1535;51.098;6.414;2022-07-19T03:30:20;30.23;;;14.87;;
3050;SDS011;1535;51.098;6.414;2022-07-19T03:32:50;36.37;;;14.80;;
3050;SDS011;1535;51.098;6.414;2022-07-19T03:35:16;32.33;;;15.73;;
3050;SDS011;1535;51.098;6.414;2022-07-19T03:37:44;44.90;;;15.80;;
3050;SDS011;1535;51.098;6.414;2022-07-19T03:40:11;28.00;;;15.43;;
3050;SDS011;1535;51.098;6.414;2022-07-19T03:42:39;25.13;;;15.20;;
3050;SDS011;1535;51.098;6.414;2022-07-19T03:45:07;42.97;;;15.40;;
3050;SDS011;1535;51.098;6.414;2022-07-19T03:47:34;23.90;;;15.47;;
3050;SDS011;1535;51.098;6.414;2022-07-19T03:50:03;27.47;;;14.63;;
3050;SDS011;1535;51.098;6.414;2022-07-19T03:52:30;22.23;;;15.03;;
3050;SDS011;1535;51.098;6.414;2022-07-19T03:54:59;14.30;;;13.20;;
3050;SDS011;1535;51.098;6.414;2022-07-19T03:57:26;19.97;;;14.33;;
3050;SDS011;1535;51.098;6.414;2022-07-19T03:59:52;22.67;;;13.60;;
3050;SDS011;1535;51.098;6.414;2022-07-19T04:02:19;22.03;;;13.77;;
3050;SDS011;1535;51.098;6.414;2022-07-19T04:04:46;27.33;;;15.70;;
3050;SDS011;1535;51.098;6.414;2022-07-19T04:07:15;24.27;;;15.17;;
3050;SDS011;1535;51.098;6.414;2022-07-19T04:09:42;18.20;;;14.43;;
3050;SDS011;1535;51.098;6.414;2022-07-19T04:12:09;16.07;;;14.67;;
3050;SDS011;1535;51.098;6.414;2022-07-19T04:14:36;20.43;;;15.03;;
3050;SDS011;1535;51.098;6.414;2022-07-19T04:17:03;24.43;;;17.10;;
3050;SDS011;1535;51.098;6.414;2022-07-19T04:19:30;17.30;;;14.37;;
3050;SDS011;1535;51.098;6.414;2022-07-19T04:21:57;27.40;;;15.83;;
3050;SDS011;1535;51.098;6.414;2022-07-19T04:24:25;43.83;;;15.30;;
3050;SDS011;1535;51.098;6.414;2022-07-19T04:26:52;33.87;;;15.30;;
3050;SDS011;1535;51.098;6.414;2022-07-19T04:29:19;29.93;;;16.03;;
3050;SDS011;1535;51.098;6.414;2022-07-19T04:31:46;29.73;;;15.90;;
3050;SDS011;1535;51.098;6.414;2022-07-19T04:34:14;16.40;;;14.90;;
3050;SDS011;1535;51.098;6.414;2022-07-19T04:36:40;25.50;;;15.17;;
3050;SDS011;1535;51.098;6.414;2022-07-19T04:39:07;23.00;;;15.30;;
3050;SDS011;1535;51.098;6.414;2022-07-19T04:41:35;19.93;;;15.43;;
3050;SDS011;1535;51.098;6.414;2022-07-19T04:44:02;32.20;;;15.70;;
3050;SDS011;1535;51.098;6.414;2022-07-19T04:46:29;24.13;;;15.10;;
3050;SDS011;1535;51.098;6.414;2022-07-19T04:48:56;30.67;;;15.03;;
3050;SDS011;1535;51.098;6.414;2022-07-19T04:51:23;23.77;;;15.70;;
3050;SDS011;1535;51.098;6.414;2022-07-19T04:53:50;22.67;;;16.10;;
3050;SDS011;1535;51.098;6.414;2022-07-19T04:56:17;26.73;;;16.87;;
3050;SDS011;1535;51.098;6.414;2022-07-19T04:58:45;35.80;;;16.53;;
3050;SDS011;1535;51.098;6.414;2022-07-19T05:01:12;31.60;;;16.67;;
3050;SDS011;1535;51.098;6.414;2022-07-19T05:03:39;29.87;;;16.40;;
3050;SDS011;1535;51.098;6.414;2022-07-19T05:06:06;25.30;;;15.70;;
3050;SDS011;1535;51.098;6.414;2022-07-19T05:08:33;26.57;;;15.77;;
3050;SDS011;1535;51.098;6.414;2022-07-19T05:11:00;19.93;;;16.53;;
3050;SDS011;1535;51.098;6.414;2022-07-19T05:13:27;35.30;;;17.03;;
3050;SDS011;1535;51.098;6.414;2022-07-19T05:15:55;23.60;;;17.47;;
3050;SDS011;1535;51.098;6.414;2022-07-19T05:18:22;25.10;;;16.53;;
3050;SDS011;1535;51.098;6.414;2022-07-19T05:20:49;18.03;;;16.47;;
3050;SDS011;1535;51.098;6.414;2022-07-19T05:23:16;19.63;;;16.57;;
3050;SDS011;1535;51.098;6.414;2022-07-19T05:25:43;25.50;;;16.50;;
3050;SDS011;1535;51.098;6.414;2022-07-19T05:28:10;19.50;;;16.53;;
3050;SDS011;1535;51.098;6.414;2022-07-19T05:30:37;27.80;;;17.50;;
3050;SDS011;1535;51.098;6.414;2022-07-19T05:33:07;23.97;;;17.10;;
3050;SDS011;1535;51.098;6.414;2022-07-19T05:35:34;23.70;;;17.20;;
3050;SDS011;1535;51.098;6.414;2022-07-19T05:38:02;34.20;;;17.40;;
3050;SDS011;1535;51.098;6.414;2022-07-19T05:40:29;24.13;;;17.30;;
3050;SDS011;1535;51.098;6.414;2022-07-19T05:42:57;19.13;;;17.13;;
3050;SDS011;1535;51.098;6.414;2022-07-19T05:45:23;19.23;;;16.50;;
3050;SDS011;1535;51.098;6.414;2022-07-19T05:47:50;30.70;;;18.63;;
3050;SDS011;1535;51.098;6.414;2022-07-19T05:50:19;21.57;;;16.50;;
3050;SDS011;1535;51.098;6.414;2022-07-19T05:52:46;29.90;;;17.07;;
3050;SDS011;1535;51.098;6.414;2022-07-19T05:55:13;34.67;;;16.30;;
3050;SDS011;1535;51.098;6.414;2022-07-19T06:00:22;33.63;;;18.23;;
3050;SDS011;1535;51.098;6.414;2022-07-19T06:02:49;24.47;;;17.20;;
3050;SDS011;1535;51.098;6.414;2022-07-19T06:05:16;22.03;;;16.53;;
3050;SDS011;1535;51.098;6.414;2022-07-19T06:07:44;27.60;;;17.10;;
3050;SDS011;1535;51.098;6.414;2022-07-19T06:10:10;19.07;;;17.23;;
3050;SDS011;1535;51.098;6.414;2022-07-19T06:12:37;36.40;;;17.90;;
3050;SDS011;1535;51.098;6.414;2022-07-19T06:15:04;28.10;;;17.07;;
3050;SDS011;1535;51.098;6.414;2022-07-19T06:17:32;25.20;;;17.50;;
3050;SDS011;1535;51.098;6.414;2022-07-19T06:19:58;22.30;;;16.70;;
3050;SDS011;1535;51.098;6.414;2022-07-19T06:22:26;27.03;;;17.80;;
3050;SDS011;1535;51.098;6.414;2022-07-19T06:24:56;35.93;;;18.37;;
3050;SDS011;1535;51.098;6.414;2022-07-19T06:27:23;30.97;;;17.27;;
3050;SDS011;1535;51.098;6.414;2022-07-19T06:29:51;33.93;;;18.07;;
3050;SDS011;1535;51.098;6.414;2022-07-19T06:32:17;30.17;;;17.43;;
3050;SDS011;1535;51.098;6.414;2022-07-19T06:34:44;25.30;;;17.50;;
3050;SDS011;1535;51.098;6.414;2022-07-19T06:37:11;20.27;;;17.20;;
3050;SDS011;1535;51.098;6.414;2022-07-19T06:39:38;19.93;;;16.93;;
3050;SDS011;1535;51.098;6.414;2022-07-19T06:42:06;22.03;;;17.60;;
3050;SDS011;1535;51.098;6.414;2022-07-19T06:44:33;22.47;;;17.43;;
3050;SDS011;1535;51.098;6.414;2022-07-19T06:47:00;25.27;;;17.73;;
3050;SDS011;1535;51.098;6.414;2022-07-19T06:49:27;23.57;;;18.13;;
3050;SDS011;1535;51.098;6.414;2022-07-19T06:52:09;38.63;;;19.30;;
3050;SDS011;1535;51.098;6.414;2022-07-19T06:57:18;41.40;;;18.30;;
3050;SDS011;1535;51.098;6.414;2022-07-19T06:59:46;42.10;;;18.30;;
3050;SDS011;1535;51.098;6.414;2022-07-19T07:02:13;53.50;;;19.13;;
3050;SDS011;1535;51.098;6.414;2022-07-19T07:04:39;56.60;;;18.17;;
3050;SDS011;1535;51.098;6.414;2022-07-19T07:07:07;33.90;;;17.73;;
3050;SDS011;1535;51.098;6.414;2022-07-19T07:09:34;24.33;;;16.93;;
3050;SDS011;1535;51.098;6.414;2022-07-19T07:12:00;32.80;;;17.10;;
3050;SDS011;1535;51.098;6.414;2022-07-19T07:14:29;38.80;;;18.23;;
3050;SDS011;1535;51.098;6.414;2022-07-19T07:16:55;31.07;;;17.70;;
3050;SDS011;1535;51.098;6.414;2022-07-19T07:19:22;42.57;;;18.47;;
3050;SDS011;1535;51.098;6.414;2022-07-19T07:21:49;28.23;;;18.03;;
3050;SDS011;1535;51.098;6.414;2022-07-19T07:24:16;33.03;;;17.90;;
3050;SDS011;1535;51.098;6.414;2022-07-19T07:26:43;29.57;;;17.67;;
3050;SDS011;1535;51.098;6.414;2022-07-19T07:29:10;19.47;;;17.07;;
3050;SDS011;1535;51.098;6.414;2022-07-19T07:31:38;33.30;;;17.97;;
3050;SDS011;1535;51.098;6.414;2022-07-19T07:34:05;24.27;;;17.83;;
3050;SDS011;1535;51.098;6.414;2022-07-19T07:36:32;41.43;;;18.00;;
3050;SDS011;1535;51.098;6.414;2022-07-19T07:38:59;28.80;;;18.60;;
3050;SDS011;1535;51.098;6.414;2022-07-19T07:41:26;45.27;;;18.50;;
3050;SDS011;1535;51.098;6.414;2022-07-19T07:43:53;40.07;;;18.10;;
3050;SDS011;1535;51.098;6.414;2022-07-19T07:46:19;21.17;;;17.20;;
3050;SDS011;1535;51.098;6.414;2022-07-19T07:48:48;19.33;;;17.63;;
3050;SDS011;1535;51.098;6.414;2022-07-19T07:51:15;21.80;;;17.77;;
3050;SDS011;1535;51.098;6.414;2022-07-19T07:53:41;22.40;;;17.97;;
3050;SDS011;1535;51.098;6.414;2022-07-19T07:56:08;29.70;;;18.33;;
3050;SDS011;1535;51.098;6.414;2022-07-19T07:58:35;24.33;;;18.30;;
3050;SDS011;1535;51.098;6.414;2022-07-19T08:01:02;23.30;;;18.13;;
3050;SDS011;1535;51.098;6.414;2022-07-19T08:03:29;25.30;;;18.60;;
3050;SDS011;1535;51.098;6.414;2022-07-19T08:05:57;40.53;;;18.90;;
3050;SDS011;1535;51.098;6.414;2022-07-19T08:08:24;26.67;;;18.10;;
3050;SDS011;1535;51.098;6.414;2022-07-19T08:10:52;51.63;;;20.27;;
3050;SDS011;1535;51.098;6.414;2022-07-19T08:13:19;25.33;;;18.90;;
3050;SDS011;1535;51.098;6.414;2022-07-19T08:15:47;27.03;;;18.90;;
3050;SDS011;1535;51.098;6.414;2022-07-19T08:18:14;23.03;;;17.67;;
3050;SDS011;1535;51.098;6.414;2022-07-19T08:20:41;25.03;;;18.03;;
3050;SDS011;1535;51.098;6.414;2022-07-19T08:23:10;30.43;;;18.20;;
3050;SDS011;1535;51.098;6.414;2022-07-19T08:25:37;20.17;;;18.10;;
3050;SDS011;1535;51.098;6.414;2022-07-19T08:28:04;22.53;;;18.90;;
3050;SDS011;1535;51.098;6.414;2022-07-19T08:30:31;20.23;;;18.20;;
3050;SDS011;1535;51.098;6.414;2022-07-19T08:32:58;19.17;;;17.77;;
3050;SDS011;1535;51.098;6.414;2022-07-19T08:35:25;23.33;;;18.43;;
3050;SDS011;1535;51.098;6.414;2022-07-19T08:37:52;18.40;;;16.90;;
3050;SDS011;1535;51.098;6.414;2022-07-19T08:40:20;19.20;;;17.60;;
3050;SDS011;1535;51.098;6.414;2022-07-19T08:42:47;19.33;;;17.40;;
3050;SDS011;1535;51.098;6.414;2022-07-19T08:45:16;21.60;;;17.93;;
3050;SDS011;1535;51.098;6.414;2022-07-19T08:47:43;18.93;;;17.53;;
3050;SDS011;1535;51.098;6.414;2022-07-19T08:50:11;34.13;;;19.10;;
3050;SDS011;1535;51.098;6.414;2022-07-19T08:52:38;23.77;;;17.10;;
3050;SDS011;1535;51.098;6.414;2022-07-19T08:55:06;19.23;;;17.43;;
3050;SDS011;1535;51.098;6.414;2022-07-19T08:57:36;19.50;;;17.57;;
3050;SDS011;1535;51.098;6.414;2022-07-19T09:00:20;20.23;;;18.03;;
3050;SDS011;1535;51.098;6.414;2022-07-19T09:02:51;20.77;;;18.10;;
3050;SDS011;1535;51.098;6.414;2022-07-19T09:05:19;22.00;;;18.27;;
3050;SDS011;1535;51.098;6.414;2022-07-19T09:07:58;20.30;;;18.33;;
3050;SDS011;1535;51.098;6.414;2022-07-19T09:10:28;27.57;;;17.80;;
3050;SDS011;1535;51.098;6.414;2022-07-19T09:13:04;19.50;;;17.60;;
3050;SDS011;1535;51.098;6.414;2022-07-19T09:18:19;19.27;;;17.30;;
3050;SDS011;1535;51.098;6.414;2022-07-19T09:20:48;20.73;;;17.10;;
3050;SDS011;1535;51.098;6.414;2022-07-19T09:23:17;19.80;;;17.80;;
3050;SDS011;1535;51.098;6.414;2022-07-19T09:25:45;18.20;;;16.60;;
3050;SDS011;1535;51.098;6.414;2022-07-19T09:28:15;18.53;;;16.80;;
3050;SDS011;1535;51.098;6.414;2022-07-19T09:30:43;19.13;;;16.97;;
3050;SDS011;1535;51.098;6.414;2022-07-19T09:33:12;18.13;;;16.47;;
3050;SDS011;1535;51.098;6.414;2022-07-19T09:35:41;18.60;;;16.83;;
3050;SDS011;1535;51.098;6.414;2022-07-19T09:38:16;17.50;;;16.20;;
3050;SDS011;1535;51.098;6.414;2022-07-19T09:40:48;18.60;;;17.10;;
3050;SDS011;1535;51.098;6.414;2022-07-19T09:43:17;21.23;;;16.73;;
3050;SDS011;1535;51.098;6.414;2022-07-19T09:45:47;17.93;;;16.07;;
3050;SDS011;1535;51.098;6.414;2022-07-19T09:48:34;18.93;;;16.93;;
3050;SDS011;1535;51.098;6.414;2022-07-19T09:51:09;17.43;;;16.00;;
3050;SDS011;1535;51.098;6.414;2022-07-19T09:53:36;18.47;;;16.60;;
3050;SDS011;1535;51.098;6.414;2022-07-19T09:56:04;17.70;;;16.00;;
3050;SDS011;1535;51.098;6.414;2022-07-19T09:58:32;17.50;;;15.93;;
3050;SDS011;1535;51.098;6.414;2022-07-19T10:01:13;16.30;;;15.20;;
3050;SDS011;1535;51.098;6.414;2022-07-19T10:03:40;16.60;;;15.30;;
3050;SDS011;1535;51.098;6.414;2022-07-19T10:06:09;17.77;;;16.30;;
3050;SDS011;1535;51.098;6.414;2022-07-19T10:08:36;17.53;;;15.93;;
3050;SDS011;1535;51.098;6.414;2022-07-19T10:11:03;18.23;;;16.53;;
3050;SDS011;1535;51.098;6.414;2022-07-19T10:13:30;17.53;;;16.10;;
3050;SDS011;1535;51.098;6.414;2022-07-19T10:15:59;17.13;;;15.47;;
3050;SDS011;1535;51.098;6.414;2022-07-19T10:18:31;17.53;;;15.73;;
3050;SDS011;1535;51.098;6.414;2022-07-19T10:21:02;16.07;;;14.80;;
3050;SDS011;1535;51.098;6.414;2022-07-19T10:23:30;16.40;;;15.20;;
3050;SDS011;1535;51.098;6.414;2022-07-19T10:25:59;15.70;;;14.50;;
3050;SDS011;1535;51.098;6.414;2022-07-19T10:28:31;16.57;;;15.50;;
3050;SDS011;1535;51.098;6.414;2022-07-19T10:31:01;16.40;;;14.93;;
3050;SDS011;1535;51.098;6.414;2022-07-19T10:33:29;17.07;;;15.47;;
3050;SDS011;1535;51.098;6.414;2022-07-19T10:47:57;17.17;;;15.60;;
3050;SDS011;1535;51.098;6.414;2022-07-19T10:50:48;20.00;;;15.90;;
3050;SDS011;1535;51.098;6.414;2022-07-19T10:56:26;17.50;;;15.10;;
3050;SDS011;1535;51.098;6.414;2022-07-19T10:58:55;16.70;;;15.20;;
3050;SDS011;1535;51.098;6.414;2022-07-19T11:01:26;17.57;;;15.73;;
3050;SDS011;1535;51.098;6.414;2022-07-19T11:03:54;16.50;;;15.30;;
3050;SDS011;1535;51.098;6.414;2022-07-19T11:07:08;17.20;;;15.90;;
3050;SDS011;1535;51.098;6.414;2022-07-19T11:09:43;17.60;;;16.10;;
3050;SDS011;1535;51.098;6.414;2022-07-19T11:12:25;17.20;;;15.70;;
3050;SDS011;1535;51.098;6.414;2022-07-19T11:14:58;18.50;;;16.80;;
3050;SDS011;1535;51.098;6.414;2022-07-19T11:17:27;32.03;;;16.77;;
3050;SDS011;1535;51.098;6.414;2022-07-19T11:20:02;17.40;;;16.20;;
3050;SDS011;1535;51.098;6.414;2022-07-19T11:22:34;21.13;;;16.00;;
3050;SDS011;1535;51.098;6.414;2022-07-19T11:25:02;18.03;;;16.27;;
3050;SDS011;1535;51.098;6.414;2022-07-19T11:27:30;16.70;;;15.77;;
3050;SDS011;1535;51.098;6.414;2022-07-19T11:29:58;17.33;;;15.93;;
3050;SDS011;1535;51.098;6.414;2022-07-19T11:32:28;16.87;;;15.40;;
3050;SDS011;1535;51.098;6.414;2022-07-19T11:34:56;26.20;;;15.87;;
3050;SDS011;1535;51.098;6.414;2022-07-19T11:37:24;17.47;;;16.47;;
3050;SDS011;1535;51.098;6.414;2022-07-19T11:39:53;16.03;;;15.13;;
3050;SDS011;1535;51.098;6.414;2022-07-19T11:42:32;17.23;;;16.13;;
3050;SDS011;1535;51.098;6.414;2022-07-19T11:45:07;16.27;;;15.33;;
3050;SDS011;1535;51.098;6.414;2022-07-19T11:47:43;17.40;;;16.10;;
3050;SDS011;1535;51.098;6.414;2022-07-19T11:50:11;18.43;;;16.33;;
3050;SDS011;1535;51.098;6.414;2022-07-19T11:52:47;17.90;;;16.50;;
3050;SDS011;1535;51.098;6.414;2022-07-19T11:55:16;16.40;;;15.50;;
3050;SDS011;1535;51.098;6.414;2022-07-19T11:57:44;16.67;;;15.37;;
3050;SDS011;1535;51.098;6.414;2022-07-19T12:00:13;16.20;;;14.93;;
3050;SDS011;1535;51.098;6.414;2022-07-19T12:02:57;17.90;;;16.03;;
3050;SDS011;1535;51.098;6.414;2022-07-19T12:05:29;17.90;;;15.97;;
3050;SDS011;1535;51.098;6.414;2022-07-19T12:07:59;17.23;;;15.60;;
3050;SDS011;1535;51.098;6.414;2022-07-19T12:10:34;16.10;;;15.00;;
3050;SDS011;1535;51.098;6.414;2022-07-19T12:13:06;17.03;;;15.80;;
3050;SDS011;1535;51.098;6.414;2022-07-19T12:15:45;19.43;;;16.27;;
3050;SDS011;1535;51.098;6.414;2022-07-19T12:18:15;29.23;;;16.80;;
3050;SDS011;1535;51.098;6.414;2022-07-19T12:20:43;18.00;;;15.70;;
3050;SDS011;1535;51.098;6.414;2022-07-19T12:23:11;16.83;;;15.83;;
3050;SDS011;1535;51.098;6.414;2022-07-19T12:25:39;16.93;;;15.23;;
3050;SDS011;1535;51.098;6.414;2022-07-19T12:28:07;16.70;;;15.40;;
3050;SDS011;1535;51.098;6.414;2022-07-19T12:30:34;17.30;;;15.67;;
3050;SDS011;1535;51.098;6.414;2022-07-19T12:33:05;17.37;;;16.07;;
3050;SDS011;1535;51.098;6.414;2022-07-19T12:35:42;17.50;;;16.23;;
3050;SDS011;1535;51.098;6.414;2022-07-19T12:38:10;21.73;;;15.30;;
3050;SDS011;1535;51.098;6.414;2022-07-19T12:40:38;18.80;;;16.70;;
3050;SDS011;1535;51.098;6.414;2022-07-19T12:43:05;26.67;;;17.03;;
3050;SDS011;1535;51.098;6.414;2022-07-19T12:45:37;19.83;;;16.00;;
3050;SDS011;1535;51.098;6.414;2022-07-19T12:48:06;23.70;;;16.13;;
3050;SDS011;1535;51.098;6.414;2022-07-19T12:50:36;17.63;;;15.67;;
3050;SDS011;1535;51.098;6.414;2022-07-19T12:53:08;23.63;;;15.87;;
3050;SDS011;1535;51.098;6.414;2022-07-19T12:55:37;24.70;;;16.27;;
3050;SDS011;1535;51.098;6.414;2022-07-19T12:58:05;17.60;;;15.80;;
3050;SDS011;1535;51.098;6.414;2022-07-19T13:00:33;17.17;;;15.63;;
3050;SDS011;1535;51.098;6.414;2022-07-19T13:03:01;16.57;;;15.23;;
3050;SDS011;1535;51.098;6.414;2022-07-19T13:05:29;16.30;;;15.00;;
3050;SDS011;1535;51.098;6.414;2022-07-19T13:07:57;29.87;;;15.67;;
3050;SDS011;1535;51.098;6.414;2022-07-19T13:10:25;16.13;;;14.97;;
3050;SDS011;1535;51.098;6.414;2022-07-19T13:12:53;16.23;;;14.93;;
3050;SDS011;1535;51.098;6.414;2022-07-19T13:15:20;16.13;;;14.93;;
3050;SDS011;1535;51.098;6.414;2022-07-19T13:17:47;16.47;;;15.07;;
3050;SDS011;1535;51.098;6.414;2022-07-19T13:20:14;23.87;;;15.30;;
3050;SDS011;1535;51.098;6.414;2022-07-19T13:22:42;16.17;;;15.13;;
3050;SDS011;1535;51.098;6.414;2022-07-19T13:25:09;18.93;;;15.97;;
3050;SDS011;1535;51.098;6.414;2022-07-19T13:27:38;17.57;;;16.27;;
3050;SDS011;1535;51.098;6.414;2022-07-19T13:30:06;16.17;;;15.10;;
3050;SDS011;1535;51.098;6.414;2022-07-19T13:32:33;17.10;;;16.00;;
3050;SDS011;1535;51.098;6.414;2022-07-19T13:35:00;16.73;;;15.73;;
3050;SDS011;1535;51.098;6.414;2022-07-19T13:37:27;16.93;;;15.93;;
3050;SDS011;1535;51.098;6.414;2022-07-19T13:39:54;17.67;;;15.73;;
3050;SDS011;1535;51.098;6.414;2022-07-19T13:42:21;17.10;;;15.37;;
3050;SDS011;1535;51.098;6.414;2022-07-19T13:44:49;18.23;;;15.17;;
3050;SDS011;1535;51.098;6.414;2022-07-19T13:47:17;28.07;;;16.40;;
3050;SDS011;1535;51.098;6.414;2022-07-19T13:49:44;24.00;;;15.27;;
3050;SDS011;1535;51.098;6.414;2022-07-19T13:52:11;15.50;;;14.40;;
3050;SDS011;1535;51.098;6.414;2022-07-19T13:54:37;21.67;;;15.47;;
3050;SDS011;1535;51.098;6.414;2022-07-19T13:57:04;17.77;;;15.30;;
3050;SDS011;1535;51.098;6.414;2022-07-19T13:59:31;16.87;;;15.20;;
3050;SDS011;1535;51.098;6.414;2022-07-19T14:02:01;16.83;;;15.33;;
3050;SDS011;1535;51.098;6.414;2022-07-19T14:04:28;15.47;;;14.47;;
3050;SDS011;1535;51.098;6.414;2022-07-19T14:06:55;17.60;;;15.83;;
3050;SDS011;1535;51.098;6.414;2022-07-19T14:09:23;26.13;;;16.33;;
3050;SDS011;1535;51.098;6.414;2022-07-19T14:11:51;16.83;;;15.10;;
3050;SDS011;1535;51.098;6.414;2022-07-19T14:14:18;16.23;;;15.00;;
3050;SDS011;1535;51.098;6.414;2022-07-19T14:16:45;17.00;;;15.63;;
3050;SDS011;1535;51.098;6.414;2022-07-19T14:19:15;15.80;;;14.80;;
3050;SDS011;1535;51.098;6.414;2022-07-19T14:21:41;15.63;;;14.83;;
3050;SDS011;1535;51.098;6.414;2022-07-19T14:24:08;21.20;;;15.17;;
3050;SDS011;1535;51.098;6.414;2022-07-19T14:26:35;16.13;;;15.13;;
3050;SDS011;1535;51.098;6.414;2022-07-19T14:29:03;17.10;;;15.17;;
3050;SDS011;1535;51.098;6.414;2022-07-19T14:31:30;16.67;;;15.03;;
3050;SDS011;1535;51.098;6.414;2022-07-19T14:33:56;16.87;;;15.40;;
3050;SDS011;1535;51.098;6.414;2022-07-19T14:36:25;15.37;;;14.23;;
3050;SDS011;1535;51.098;6.414;2022-07-19T14:38:52;15.53;;;14.60;;
3050;SDS011;1535;51.098;6.414;2022-07-19T14:41:19;17.63;;;15.77;;
3050;SDS011;1535;51.098;6.414;2022-07-19T14:43:46;15.83;;;14.40;;
3050;SDS011;1535;51.098;6.414;2022-07-19T14:46:13;16.00;;;14.93;;
3050;SDS011;1535;51.098;6.414;2022-07-19T14:48:40;16.73;;;15.30;;
3050;SDS011;1535;51.098;6.414;2022-07-19T14:51:08;16.37;;;15.30;;
3050;SDS011;1535;51.098;6.414;2022-07-19T14:53:36;16.00;;;14.60;;
3050;SDS011;1535;51.098;6.414;2022-07-19T14:56:03;22.03;;;14.83;;
3050;SDS011;1535;51.098;6.414;2022-07-19T14:58:30;18.37;;;16.13;;
3050;SDS011;1535;51.098;6.414;2022-07-19T15:00:57;16.17;;;14.70;;
3050;SDS011;1535;51.098;6.414;2022-07-19T15:03:25;17.43;;;16.00;;
3050;SDS011;1535;51.098;6.414;2022-07-19T15:05:51;15.50;;;14.57;;
3050;SDS011;1535;51.098;6.414;2022-07-19T15:08:18;16.20;;;15.20;;
3050;SDS011;1535;51.098;6.414;2022-07-19T15:10:47;15.40;;;14.60;;
3050;SDS011;1535;51.098;6.414;2022-07-19T15:13:14;16.17;;;15.03;;
3050;SDS011;1535;51.098;6.414;2022-07-19T15:15:40;18.90;;;16.20;;
3050;SDS011;1535;51.098;6.414;2022-07-19T15:18:07;22.50;;;16.63;;
3050;SDS011;1535;51.098;6.414;2022-07-19T15:20:34;18.50;;;16.00;;
3050;SDS011;1535;51.098;6.414;2022-07-19T15:23:02;24.00;;;16.00;;
3050;SDS011;1535;51.098;6.414;2022-07-19T15:25:29;19.97;;;16.10;;